In Rescue
 
Open Full Screen Window  High Contrast Mode
Wind Gusting 00 knots
09
July 24, 2024 4:55 PM CDT
Weather Information
Wind Direction
  160 °
Wind Speed
  09 kt (10 mph)
Wind Gust
  00 kt (0 mph)
Variable Wind
140°
200°
Altimeter
30.18 in
Visibility
10 SM
Temperature
25° C
77° F
Dewpoint
15° C
59° F
Humidity
54%
1hr Rain Fall
00.00 in.
24hr Rain Fall
00.49 in.
Sky Condition
Broken @ 3,800 ft
VFR

METAR KDTL 242155Z AUTO 16009KT 140V200 10SM BKN038 25/15 A3018 RMK AO2

FAA Disclaimer: The data displayed is for advisory purposes only and is not to be used for flight planning or operations.